Time;durP1;ratioP1;P1;durP2;ratioP2;P2;SDS_P1;SDS_P2;PMS_P1;PMS_P2;Temp;Humidity;BMP_temperature;BMP_pressure;BME280_temperature;BME280_humidity;BME280_pressure;Samples;Min_cycle;Max_cycle;Signal;HPM_P1;HPM_P2
2021/07/10 00:10:48;;;;;;;9.07;6.80;;;18.00;99.90;;;;;;4973195;28;20050;-93
2021/07/10 00:13:30;;;;;;;8.68;6.47;;;18.10;99.90;;;;;;4974511;28;20062;-93
2021/07/10 00:15:56;;;;;;;9.20;7.13;;;18.10;99.90;;;;;;4990450;28;20026;-93
2021/07/10 00:18:24;;;;;;;10.27;7.38;;;18.20;99.90;;;;;;4977360;28;20022;-93
2021/07/10 00:20:49;;;;;;;10.10;6.72;;;18.10;99.90;;;;;;4976862;28;20038;-93
2021/07/10 00:23:26;;;;;;;9.63;6.85;;;18.00;99.90;;;;;;4976327;28;20026;-93
2021/07/10 00:26:00;;;;;;;11.80;7.35;;;18.10;99.90;;;;;;4977104;28;20121;-92
2021/07/10 00:28:26;;;;;;;10.95;7.55;;;17.90;99.90;;;;;;4976262;28;20134;-92
2021/07/10 00:30:56;;;;;;;8.40;6.65;;;17.80;99.90;;;;;;4975337;28;20176;-93
2021/07/10 00:33:21;;;;;;;9.75;7.05;;;17.80;99.90;;;;;;4987426;28;20396;-93
2021/07/10 00:35:47;;;;;;;8.35;6.55;;;17.70;99.90;;;;;;4977578;28;20050;-93
2021/07/10 00:38:21;;;;;;;9.95;7.15;;;17.70;99.90;;;;;;4978339;28;20066;-93
2021/07/10 00:40:52;;;;;;;12.30;8.35;;;17.70;99.90;;;;;;4979004;28;20030;-93
2021/07/10 00:43:30;;;;;;;9.50;7.10;;;17.60;99.90;;;;;;4977299;28;20033;-94
2021/07/10 00:46:20;;;;;;;10.38;7.28;;;17.50;99.90;;;;;;4977721;28;20067;-91
2021/07/10 01:04:39;;;;;;;11.07;8.13;;;17.70;99.90;;;;;;2692472;23;20139;-88
2021/07/10 01:07:24;;;;;;;10.85;8.00;;;17.70;99.90;;;;;;5044067;28;20029;-90
2021/07/10 01:10:11;;;;;;;10.40;7.68;;;17.70;99.90;;;;;;5029701;28;20112;-88
2021/07/10 01:12:50;;;;;;;9.23;7.40;;;17.70;99.90;;;;;;5056616;28;20041;-88
2021/07/10 01:15:24;;;;;;;10.52;8.02;;;17.70;99.90;;;;;;5054846;28;20052;-89
2021/07/10 01:18:37;;;;;;;;;;;;;;;;;;;;;
2021/07/10 01:21:23;;;;;;;9.98;6.80;;;17.80;99.90;;;;;;5055478;28;20029;-89
2021/07/10 01:23:58;;;;;;;10.80;7.75;;;17.80;99.90;;;;;;5039891;28;20060;-89
2021/07/10 01:26:24;;;;;;;10.55;7.85;;;17.90;99.90;;;;;;5039561;28;20488;-88
2021/07/10 01:29:00;;;;;;;10.75;7.82;;;18.00;99.90;;;;;;5006609;28;20029;-88
2021/07/10 01:31:57;;;;;;;9.93;7.53;;;18.00;99.90;;;;;;5057174;28;20036;-88
2021/07/10 01:34:23;;;;;;;9.25;7.35;;;18.10;99.90;;;;;;5067616;28;20485;-88
2021/07/10 01:36:52;;;;;;;9.65;7.65;;;18.10;99.90;;;;;;5047455;28;20092;-88
2021/07/10 01:39:17;;;;;;;9.98;7.20;;;18.00;99.90;;;;;;5057028;28;20461;-89
2021/07/10 01:41:49;;;;;;;9.90;7.25;;;18.10;99.90;;;;;;5057083;28;20031;-88
2021/07/10 01:44:14;;;;;;;10.00;7.68;;;18.10;99.90;;;;;;5056730;28;20017;-88
2021/07/10 01:46:41;;;;;;;11.15;7.95;;;18.10;99.90;;;;;;5038882;28;20097;-88
2021/07/10 01:49:10;;;;;;;10.05;7.57;;;18.10;99.90;;;;;;5038644;28;20106;-88
2021/07/10 01:51:40;;;;;;;10.32;7.55;;;18.00;99.90;;;;;;5038604;28;20487;-88
2021/07/10 01:54:09;;;;;;;9.57;7.45;;;17.90;99.90;;;;;;5056444;28;20021;-88
2021/07/10 01:56:34;;;;;;;11.05;8.18;;;17.80;99.90;;;;;;5038720;28;20021;-87
2021/07/10 01:59:14;;;;;;;11.18;8.48;;;17.80;99.90;;;;;;5038208;28;20029;-88
2021/07/10 02:01:46;;;;;;;12.25;8.00;;;17.80;99.90;;;;;;5056271;28;20067;-87
2021/07/10 02:04:15;;;;;;;12.15;8.48;;;17.80;99.90;;;;;;5055949;28;20128;-88
2021/07/10 02:06:43;;;;;;;10.93;8.05;;;17.80;99.90;;;;;;5038961;28;20025;-90
2021/07/10 02:09:09;;;;;;;10.95;8.77;;;17.80;99.90;;;;;;5038194;28;20077;-89
2021/07/10 02:11:36;;;;;;;11.82;9.10;;;17.80;99.90;;;;;;5038360;28;20459;-88
2021/07/10 02:14:05;;;;;;;11.75;9.13;;;17.70;99.90;;;;;;5038040;28;20106;-89
2021/07/10 02:16:31;;;;;;;11.15;8.75;;;17.70;99.90;;;;;;5037926;28;20025;-88
2021/07/10 02:18:58;;;;;;;12.20;8.43;;;17.70;99.90;;;;;;5056352;28;20037;-88
2021/07/10 02:21:28;;;;;;;9.73;7.43;;;17.70;99.90;;;;;;5038096;28;20112;-89
2021/07/10 02:23:54;;;;;;;13.73;8.27;;;17.60;99.90;;;;;;5006653;28;20033;-88
2021/07/10 02:26:20;;;;;;;12.48;9.45;;;17.60;99.90;;;;;;5021774;28;20480;-89
2021/07/10 02:28:46;;;;;;;12.25;9.32;;;17.60;99.90;;;;;;5037582;28;20090;-88
2021/07/10 02:31:16;;;;;;;11.98;8.95;;;17.60;99.90;;;;;;5037571;28;20032;-87
2021/07/10 02:33:42;;;;;;;11.98;8.88;;;17.50;99.90;;;;;;5055038;28;20029;-88
2021/07/10 02:36:10;;;;;;;13.32;9.20;;;17.50;99.90;;;;;;5021269;28;20491;-88
2021/07/10 02:38:38;;;;;;;12.50;9.27;;;17.40;99.90;;;;;;5055374;28;20033;-88
2021/07/10 02:41:08;;;;;;;12.68;9.20;;;17.30;99.90;;;;;;5036940;28;20032;-89
2021/07/10 02:43:37;;;;;;;12.52;9.43;;;17.30;99.90;;;;;;5055019;28;20025;-87
2021/07/10 02:46:03;;;;;;;12.85;8.93;;;17.20;99.90;;;;;;5036569;28;20052;-87
2021/07/10 02:48:29;;;;;;;13.63;9.20;;;17.20;99.90;;;;;;5055274;28;20090;-87
2021/07/10 02:50:54;;;;;;;11.07;8.48;;;17.10;99.90;;;;;;5054660;28;20115;-88
2021/07/10 02:53:20;;;;;;;10.85;8.73;;;17.10;99.90;;;;;;5036882;28;20078;-88
2021/07/10 02:55:47;;;;;;;11.43;8.88;;;17.10;99.90;;;;;;5054920;28;20073;-88
2021/07/10 02:58:15;;;;;;;13.23;8.52;;;17.00;99.90;;;;;;5056177;28;20029;-88
2021/07/10 03:00:41;;;;;;;11.90;9.40;;;17.00;99.90;;;;;;5073704;28;20021;-88
2021/07/10 03:03:09;;;;;;;12.35;9.25;;;17.00;99.90;;;;;;5078248;28;20029;-87
2021/07/10 03:05:38;;;;;;;14.98;9.32;;;16.90;99.90;;;;;;5068033;28;20435;-89
2021/07/10 03:08:07;;;;;;;11.95;8.88;;;16.90;99.90;;;;;;5022301;28;20040;-88
2021/07/10 03:10:36;;;;;;;11.18;8.82;;;16.90;99.90;;;;;;5038114;28;20515;-88
2021/07/10 03:13:02;;;;;;;11.75;9.07;;;16.80;99.90;;;;;;5037307;28;20036;-88
2021/07/10 03:15:28;;;;;;;11.70;8.88;;;16.70;99.90;;;;;;5055614;28;20087;-88
2021/07/10 03:17:54;;;;;;;11.63;8.50;;;16.70;99.90;;;;;;5020969;28;20120;-87
2021/07/10 03:20:25;;;;;;;9.88;8.23;;;16.70;99.90;;;;;;5037339;28;20112;-87
2021/07/10 03:22:51;;;;;;;12.13;9.25;;;16.70;99.90;;;;;;5036900;28;20013;-88
2021/07/10 03:25:28;;;;;;;11.38;9.00;;;16.70;99.90;;;;;;5037109;28;20025;-88
2021/07/10 03:27:56;;;;;;;10.45;8.50;;;16.60;99.90;;;;;;5036850;28;20024;-88
2021/07/10 03:30:24;;;;;;;10.15;8.30;;;16.60;99.90;;;;;;5036984;28;20033;-88
2021/07/10 03:32:51;;;;;;;12.50;8.43;;;16.60;99.90;;;;;;5036806;28;20021;-88
2021/07/10 03:35:21;;;;;;;11.70;8.10;;;16.50;99.90;;;;;;5054587;28;20198;-88
2021/07/10 03:37:51;;;;;;;10.63;8.00;;;16.60;99.90;;;;;;5038306;28;20049;-89
2021/07/10 03:40:21;;;;;;;12.43;8.77;;;16.50;99.90;;;;;;5059291;28;20035;-89
2021/07/10 03:42:53;;;;;;;11.85;8.82;;;16.50;99.90;;;;;;5044939;28;20029;-88
2021/07/10 03:45:20;;;;;;;12.52;8.50;;;16.50;99.90;;;;;;5036493;28;20465;-89
2021/07/10 03:47:50;;;;;;;12.07;8.90;;;16.50;99.90;;;;;;5054544;28;20053;-90
2021/07/10 03:50:20;;;;;;;11.48;8.30;;;16.50;99.90;;;;;;5036843;28;20067;-88
2021/07/10 03:52:48;;;;;;;11.98;8.10;;;16.50;99.90;;;;;;5020366;28;20496;-87
2021/07/10 03:55:18;;;;;;;11.40;8.55;;;16.50;99.90;;;;;;5054469;28;20025;-89
2021/07/10 03:57:45;;;;;;;10.30;7.65;;;16.50;99.90;;;;;;5054229;28;20159;-89
2021/07/10 04:00:16;;;;;;;11.43;8.25;;;16.50;99.90;;;;;;5035546;28;20106;-89
2021/07/10 04:02:43;;;;;;;13.05;8.65;;;16.60;99.90;;;;;;5035733;28;20065;-88
2021/07/10 04:05:10;;;;;;;10.35;7.47;;;16.60;99.90;;;;;;5053942;28;20041;-88
2021/07/10 04:07:37;;;;;;;10.85;8.40;;;16.60;99.90;;;;;;5035895;28;20041;-88
2021/07/10 04:10:08;;;;;;;11.02;7.80;;;16.70;99.90;;;;;;5053842;28;20028;-88
2021/07/10 04:12:34;;;;;;;13.60;9.07;;;16.70;99.90;;;;;;5035963;28;20196;-88
2021/07/10 04:15:11;;;;;;;10.88;7.65;;;16.70;99.90;;;;;;5053248;28;20512;-88
2021/07/10 04:17:40;;;;;;;11.25;8.10;;;16.80;99.90;;;;;;5035960;28;20469;-88
2021/07/10 04:20:14;;;;;;;9.35;7.30;;;16.80;99.90;;;;;;5053947;28;20080;-88
2021/07/10 04:22:44;;;;;;;10.73;8.07;;;16.80;99.90;;;;;;5035645;28;20075;-89
2021/07/10 04:25:13;;;;;;;11.88;8.25;;;16.80;99.90;;;;;;5035701;28;20096;-88
2021/07/10 04:27:43;;;;;;;10.02;7.47;;;16.90;99.90;;;;;;5035698;28;20563;-89
2021/07/10 04:30:10;;;;;;;12.60;8.45;;;16.90;99.90;;;;;;5036160;28;20045;-88
2021/07/10 04:32:35;;;;;;;10.25;7.88;;;17.00;99.90;;;;;;5053362;28;20025;-88
2021/07/10 04:35:02;;;;;;;10.07;7.93;;;17.00;99.90;;;;;;5035294;28;20044;-88
2021/07/10 04:37:28;;;;;;;11.13;8.18;;;17.00;99.90;;;;;;5053385;28;20033;-88
2021/07/10 04:39:54;;;;;;;12.27;8.52;;;17.00;99.90;;;;;;5053210;28;20033;-88
2021/07/10 04:42:27;;;;;;;11.55;9.23;;;17.10;99.90;;;;;;5035312;28;20122;-88
2021/07/10 04:44:55;;;;;;;;;;;17.10;99.90;;;;;;5035685;28;20615;-88
2021/07/10 04:47:22;;;;;;;10.20;7.45;;;17.10;99.90;;;;;;5053286;28;20021;-87
2021/07/10 04:49:48;;;;;;;10.82;8.32;;;17.10;99.90;;;;;;5065040;28;20029;-88
2021/07/10 04:52:16;;;;;;;11.70;8.68;;;17.20;99.90;;;;;;5062780;28;20009;-87
2021/07/10 04:54:44;;;;;;;12.18;9.18;;;17.30;99.90;;;;;;5070153;28;20468;-88
2021/07/10 04:57:10;;;;;;;12.55;8.98;;;17.30;99.90;;;;;;5039944;28;20021;-88
2021/07/10 04:59:35;;;;;;;11.35;8.50;;;17.40;99.90;;;;;;5039641;28;20047;-87
2021/07/10 05:02:01;;;;;;;11.90;8.13;;;17.40;99.90;;;;;;5038976;28;20035;-88
2021/07/10 05:04:27;;;;;;;14.90;9.55;;;17.40;99.90;;;;;;5056712;28;20118;-88
2021/07/10 05:06:53;;;;;;;13.27;9.52;;;17.40;99.90;;;;;;5056798;28;20029;-88
2021/07/10 05:09:20;;;;;;;16.10;11.43;;;17.50;99.90;;;;;;5039093;28;20124;-88
2021/07/10 05:11:47;;;;;;;16.75;12.05;;;17.50;99.90;;;;;;5039490;28;20056;-88
2021/07/10 05:14:15;;;;;;;21.02;17.30;;;17.50;99.90;;;;;;5022808;28;20362;-88
2021/07/10 05:16:49;;;;;;;19.83;16.02;;;17.50;99.90;;;;;;5039154;28;20083;-88
2021/07/10 05:19:15;;;;;;;22.20;15.68;;;17.40;99.90;;;;;;5057113;28;20021;-87
2021/07/10 05:21:40;;;;;;;20.92;17.13;;;17.50;99.90;;;;;;5057184;28;20484;-87
2021/07/10 05:24:06;;;;;;;21.42;17.13;;;17.50;99.90;;;;;;5039364;28;20029;-88
2021/07/10 05:26:32;;;;;;;24.38;19.95;;;17.50;99.90;;;;;;5056700;28;20477;-88
2021/07/10 05:29:01;;;;;;;24.05;20.42;;;17.50;99.90;;;;;;5056996;28;20025;-88
2021/07/10 05:31:27;;;;;;;20.90;17.52;;;17.50;99.90;;;;;;5038672;28;20389;-88
2021/07/10 05:33:55;;;;;;;20.98;16.85;;;17.50;99.90;;;;;;5021778;28;20033;-88
2021/07/10 05:36:21;;;;;;;22.92;18.85;;;17.60;99.90;;;;;;5022015;28;20036;-89
2021/07/10 05:38:48;;;;;;;19.60;16.52;;;17.70;99.90;;;;;;5038865;28;20032;-88
2021/07/10 05:41:14;;;;;;;22.67;18.15;;;17.80;99.90;;;;;;5038474;28;20104;-88
2021/07/10 05:43:39;;;;;;;21.90;18.70;;;17.90;99.90;;;;;;5055980;28;20056;-88
2021/07/10 05:46:15;;;;;;;22.90;19.10;;;18.00;99.90;;;;;;5040690;28;20032;-88
2021/07/10 05:48:46;;;;;;;22.80;18.65;;;18.10;99.90;;;;;;5040718;28;20044;-88
2021/07/10 05:51:13;;;;;;;24.10;18.88;;;18.20;99.90;;;;;;5038717;28;20108;-88
2021/07/10 05:53:38;;;;;;;25.15;19.95;;;18.30;99.90;;;;;;5037648;28;20384;-88
2021/07/10 05:56:11;;;;;;;30.95;24.50;;;18.40;99.90;;;;;;5037653;28;20112;-88
2021/07/10 05:58:37;;;;;;;28.60;23.35;;;18.50;99.90;;;;;;5037970;28;20061;-88
2021/07/10 06:01:05;;;;;;;26.35;21.48;;;18.60;99.90;;;;;;5037600;28;20024;-87
2021/07/10 06:03:48;;;;;;;;;;;;;;;;;;;;;
2021/07/10 06:06:19;;;;;;;31.73;25.60;;;18.80;99.90;;;;;;5056189;28;20044;-88
2021/07/10 06:08:53;;;;;;;33.40;24.77;;;18.90;99.90;;;;;;5037552;28;20461;-88
2021/07/10 06:11:26;;;;;;;29.58;24.27;;;18.90;99.90;;;;;;5055760;28;20101;-89
2021/07/10 06:14:12;;;;;;;32.65;23.23;;;19.10;99.90;;;;;;5037492;28;20025;-89
2021/07/10 06:16:42;;;;;;;28.48;23.48;;;19.20;99.90;;;;;;5038021;28;20077;-89
2021/07/10 06:19:16;;;;;;;35.15;27.73;;;19.30;99.90;;;;;;5037066;28;20077;-90
2021/07/10 06:21:50;;;;;;;33.95;27.38;;;19.40;99.90;;;;;;5022026;28;20098;-89
2021/07/10 06:24:17;;;;;;;34.50;26.52;;;19.40;99.90;;;;;;5037715;28;20116;-88
2021/07/10 06:26:57;;;;;;;34.00;27.00;;;19.40;99.90;;;;;;5036940;28;20453;-89
2021/07/10 06:29:26;;;;;;;32.60;25.50;;;19.40;99.90;;;;;;5037440;28;20073;-89
2021/07/10 06:31:57;;;;;;;35.15;25.75;;;19.50;99.90;;;;;;5037957;28;20037;-89
2021/07/10 06:34:25;;;;;;;30.48;23.73;;;19.50;99.90;;;;;;5055469;28;20059;-88
2021/07/10 06:36:58;;;;;;;27.75;22.45;;;19.60;99.90;;;;;;5020964;28;20049;-89
2021/07/10 06:39:26;;;;;;;;;;;19.70;99.90;;;;;;5078313;28;20033;-88
2021/07/10 06:42:10;;;;;;;26.70;20.75;;;19.70;99.90;;;;;;5061711;28;19939;-88
2021/07/10 06:44:46;;;;;;;26.63;22.00;;;19.70;99.90;;;;;;5056904;28;20021;-89
2021/07/10 06:47:19;;;;;;;34.42;26.00;;;19.70;99.90;;;;;;5022272;28;20040;-88
2021/07/10 06:49:46;;;;;;;26.45;20.75;;;19.60;99.90;;;;;;5055823;28;20104;-90
2021/07/10 06:52:35;;;;;;;26.25;19.98;;;19.70;99.90;;;;;;5055108;28;20037;-88
2021/07/10 06:55:04;;;;;;;26.58;21.25;;;19.80;99.90;;;;;;5054507;28;20048;-88
2021/07/10 06:57:48;;;;;;;34.63;26.67;;;19.90;99.90;;;;;;5021109;28;20033;-88
2021/07/10 07:00:28;;;;;;;;;;;;;;;;;;;;;
2021/07/10 07:03:07;;;;;;;;;;;;;;;;;;;;;
2021/07/10 07:06:03;;;;;;;27.90;21.25;;;19.90;99.90;;;;;;5054719;28;20052;-88
2021/07/10 07:08:42;;;;;;;29.38;23.20;;;20.00;99.90;;;;;;5054788;28;20033;-89
2021/07/10 07:14:54;;;;;;;24.98;19.25;;;20.00;99.90;;;;;;4925606;28;20393;-89
2021/07/10 07:17:30;;;;;;;23.80;17.17;;;20.10;99.90;;;;;;5036351;28;20036;-88
2021/07/10 07:31:19;;;;;;;22.33;17.48;;;20.30;99.90;;;;;;4897480;28;20054;-89
2021/07/10 07:33:48;;;;;;;26.65;20.67;;;20.30;99.90;;;;;;4973559;28;20078;-90
2021/07/10 07:36:19;;;;;;;22.63;16.75;;;20.30;99.90;;;;;;5038430;28;20195;-89
2021/07/10 07:39:08;;;;;;;;;;;;;;;;;;;;;
2021/07/10 07:41:44;;;;;;;26.95;20.30;;;20.60;99.90;;;;;;5055189;28;20019;-88
2021/07/10 07:44:36;;;;;;;24.02;18.13;;;20.70;99.90;;;;;;5060851;28;20040;-88
2021/07/10 07:47:42;;;;;;;;;;;;;;;;;;;;;
2021/07/10 07:50:44;;;;;;;20.30;15.30;;;20.80;99.90;;;;;;5024550;28;20092;-89
2021/07/10 07:53:57;;;;;;;16.58;13.20;;;21.00;99.90;;;;;;5063800;28;20025;-89
2021/07/10 07:57:19;;;;;;;;;;;;;;;;;;;;;
2021/07/10 08:03:29;;;;;;;14.93;12.35;;;21.30;99.90;;;;;;5036988;28;20037;-90
2021/07/10 08:07:33;;;;;;;;;;;;;;;;;;;;;
2021/07/10 08:13:48;;;;;;;;;;;;;;;;;;;;;
2021/07/10 08:26:34;;;;;;;16.50;12.30;;;21.60;99.90;;;;;;4972576;28;20062;-89
2021/07/10 08:30:20;;;;;;;;;;;;;;;;;;;;;
2021/07/10 08:33:00;;;;;;;;;;;;;;;;;;;;;
2021/07/10 08:36:00;;;;;;;;;;;;;;;;;;;;;
2021/07/10 08:39:00;;;;;;;12.05;8.85;;;21.80;99.90;;;;;;4977092;28;20045;-90
2021/07/10 08:48:31;;;;;;;;;;;;;;;;;;;;;
2021/07/10 08:51:31;;;;;;;;;;;;;;;;;;;;;
2021/07/10 08:54:33;;;;;;;10.75;9.00;;;22.10;99.90;;;;;;5023509;28;20045;-89
2021/07/10 08:57:40;;;;;;;;;;;;;;;;;;;;;
2021/07/10 09:18:18;;;;;;;;;;;;;;;;;;;;;
2021/07/10 09:24:00;;;;;;;5.80;4.43;;;22.80;99.90;;;;;;4894177;29;20081;-90
2021/07/10 09:30:21;;;;;;;5.40;3.95;;;23.20;99.90;;;;;;4874095;29;20040;-89
2021/07/10 09:33:53;;;;;;;;;;;;;;;;;;;;;
2021/07/10 09:37:06;;;;;;;;;;;;;;;;;;;;;
2021/07/10 09:40:42;;;;;;;8.15;5.68;;;23.80;99.90;;;;;;4877152;29;20043;-88
2021/07/10 09:43:50;;;;;;;5.70;4.18;;;24.10;99.90;;;;;;4916039;29;20500;-89
2021/07/10 09:49:29;;;;;;;6.20;3.90;;;25.10;99.90;;;;;;5039131;28;20504;-88
2021/07/10 10:07:10;;;;;;;8.38;6.05;;;24.90;99.10;;;;;;4874876;29;20089;-88
2021/07/10 10:10:32;;;;;;;;;;;;;;;;;;;;;
2021/07/10 10:13:47;;;;;;;6.97;5.18;;;25.10;99.10;;;;;;4839247;29;20042;-89
2021/07/10 10:16:42;;;;;;;;;;;;;;;;;;;;;
2021/07/10 10:22:52;;;;;;;7.15;4.82;;;25.20;98.60;;;;;;4862217;29;20034;-89
2021/07/10 10:25:37;;;;;;;8.20;5.50;;;25.30;98.50;;;;;;4915152;29;20555;-90
2021/07/10 10:29:29;;;;;;;;;;;;;;;;;;;;;
2021/07/10 10:32:39;;;;;;;7.40;5.10;;;25.40;98.20;;;;;;4934225;29;20075;-89
2021/07/10 10:35:38;;;;;;;11.63;7.90;;;25.90;98.00;;;;;;4953390;29;20075;-90
2021/07/10 10:38:37;;;;;;;8.60;6.53;;;26.40;97.20;;;;;;4937145;29;20027;-90
2021/07/10 10:41:37;;;;;;;;;;;;;;;;;;;;;
2021/07/10 10:44:51;;;;;;;;;;;;;;;;;;;;;
2021/07/10 10:47:51;;;;;;;;;;;;;;;;;;;;;
2021/07/10 10:50:53;;;;;;;7.22;4.55;;;28.30;95.70;;;;;;4920549;29;20081;-89
2021/07/10 10:53:27;;;;;;;7.72;4.93;;;29.00;95.20;;;;;;4951350;28;20058;-90
2021/07/10 10:56:33;;;;;;;7.13;5.50;;;29.50;93.90;;;;;;4950656;28;20039;-88
2021/07/10 11:03:26;;;;;;;;;;;;;;;;;;;;;
2021/07/10 11:07:13;;;;;;;;;;;;;;;;;;;;;
2021/07/10 11:10:20;;;;;;;4.97;3.95;;;29.00;92.20;;;;;;4913600;29;20099;-89
2021/07/10 11:16:38;;;;;;;6.07;4.18;;;28.40;93.20;;;;;;4981532;28;20565;-89
2021/07/10 11:19:35;;;;;;;8.15;5.50;;;28.30;93.50;;;;;;5011771;28;20516;-88
2021/07/10 11:26:56;;;;;;;4.88;3.75;;;27.80;92.70;;;;;;4923266;29;20597;-88
2021/07/10 11:33:05;;;;;;;5.60;3.53;;;27.60;92.90;;;;;;4833529;29;20480;-88
2021/07/10 11:35:53;;;;;;;6.72;3.78;;;27.50;93.00;;;;;;4873657;29;20103;-89
2021/07/10 11:45:54;;;;;;;5.97;4.50;;;26.90;93.90;;;;;;5009555;28;20601;-89
2021/07/10 11:48:26;;;;;;;6.90;5.43;;;27.40;93.90;;;;;;5015746;28;20100;-86
2021/07/10 11:51:02;;;;;;;;;;;27.70;92.70;;;;;;5032543;28;20548;-87
2021/07/10 11:54:14;;;;;;;;;;;;;;;;;;;;;
2021/07/10 11:57:53;;;;;;;;;;;;;;;;;;;;;
2021/07/10 12:00:04;;;;;;;;;;;;;;;;;;;;;
2021/07/10 12:09:29;;;;;;;4.25;2.90;;;28.60;91.40;;;;;;4988505;28;20046;-90
2021/07/10 12:12:45;;;;;;;3.75;2.42;;;29.10;91.10;;;;;;4965834;28;21521;-90
2021/07/10 12:16:02;;;;;;;;;;;;;;;;;;;;;
2021/07/10 12:19:32;;;;;;;;;;;;;;;;;;;;;
2021/07/10 12:22:46;;;;;;;3.78;2.50;;;31.60;84.80;;;;;;4919688;29;20054;-87
2021/07/10 12:26:05;;;;;;;;;;;;;;;;;;;;;
2021/07/10 12:32:46;;;;;;;4.53;3.05;;;32.40;76.60;;;;;;4924987;29;20035;-89
2021/07/10 12:36:06;;;;;;;2.95;2.42;;;31.80;78.60;;;;;;4920995;29;20603;-90
2021/07/10 12:39:15;;;;;;;4.68;3.47;;;31.70;79.70;;;;;;4918339;29;20035;-89
2021/07/10 12:42:13;;;;;;;;;;;;;;;;;;;;;
2021/07/10 12:45:31;;;;;;;;;;;;;;;;;;;;;
2021/07/10 12:48:05;;;;;;;4.05;2.92;;;31.00;79.50;;;;;;4925407;28;20016;-88
2021/07/10 12:51:11;;;;;;;6.57;3.40;;;30.60;79.50;;;;;;4944629;28;20543;-90
2021/07/10 12:54:04;;;;;;;;;;;;;;;;;;;;;
2021/07/10 13:00:26;;;;;;;;;;;;;;;;;;;;;
2021/07/10 13:03:26;;;;;;;;;;;;;;;;;;;;;
2021/07/10 13:09:58;;;;;;;3.28;2.83;;;31.90;76.10;;;;;;4897527;29;20059;-88
2021/07/10 13:16:49;;;;;;;;;;;;;;;;;;;;;
2021/07/10 13:19:44;;;;;;;4.07;2.85;;;31.60;73.10;;;;;;4984658;28;20033;-88
2021/07/10 13:22:12;;;;;;;4.75;3.20;;;31.20;74.80;;;;;;5019695;28;20029;-88
2021/07/10 13:28:52;;;;;;;3.40;2.72;;;30.80;73.40;;;;;;5026987;28;20045;-89
2021/07/10 13:31:47;;;;;;;2.88;2.47;;;30.70;73.50;;;;;;5024347;28;20045;-88
2021/07/10 13:37:52;;;;;;;3.50;2.67;;;31.00;72.20;;;;;;5000572;28;20029;-88
2021/07/10 13:41:21;;;;;;;4.00;2.90;;;30.80;72.20;;;;;;5016640;28;20135;-88
2021/07/10 13:44:41;;;;;;;;;;;;;;;;;;;;;
2021/07/10 13:47:33;;;;;;;4.88;3.75;;;30.10;74.00;;;;;;4907709;29;20074;-88
2021/07/10 13:53:46;;;;;;;;;;;;;;;;;;;;;
2021/07/10 13:56:37;;;;;;;4.47;2.97;;;28.80;75.00;;;;;;5044885;28;20060;-88
2021/07/10 13:59:27;;;;;;;5.30;3.88;;;28.70;75.60;;;;;;5044831;28;20021;-88
2021/07/10 14:02:24;;;;;;;;;;;;;;;;;;;;;
2021/07/10 14:05:31;;;;;;;4.65;3.50;;;28.70;75.30;;;;;;5049778;28;20040;-87
2021/07/10 14:08:13;;;;;;;4.28;3.00;;;28.60;75.20;;;;;;5010804;28;20029;-88
2021/07/10 14:10:49;;;;;;;3.00;2.13;;;28.60;75.70;;;;;;5022812;28;20052;-88
2021/07/10 14:13:43;;;;;;;;;;;;;;;;;;;;;
2021/07/10 14:16:10;;;;;;;5.00;3.80;;;28.60;75.10;;;;;;5054260;28;20029;-87
2021/07/10 14:25:04;;;;;;;4.95;3.63;;;27.70;76.70;;;;;;5021029;28;20492;-85
2021/07/10 14:35:10;;;;;;;;;;;;;;;;;;;;;
2021/07/10 14:37:59;;;;;;;4.75;3.20;;;26.90;78.80;;;;;;4971003;28;20023;-88
2021/07/10 14:40:28;;;;;;;3.80;2.88;;;26.80;79.00;;;;;;4938458;29;20506;-88
2021/07/10 14:49:24;;;;;;;4.53;3.67;;;26.90;79.00;;;;;;4938180;29;20532;-87
2021/07/10 14:51:55;;;;;;;5.45;3.60;;;26.70;79.40;;;;;;4942612;29;20543;-87
2021/07/10 14:55:14;;;;;;;4.97;4.10;;;26.60;79.50;;;;;;4940607;29;20078;-87
2021/07/10 15:01:26;;;;;;;5.10;3.75;;;26.40;79.50;;;;;;4925290;29;20118;-87
2021/07/10 15:04:18;;;;;;;7.45;3.72;;;26.50;80.60;;;;;;4937348;29;20055;-88
2021/07/10 15:07:11;;;;;;;6.13;4.70;;;26.70;80.60;;;;;;4942774;29;20447;-87
2021/07/10 15:09:40;;;;;;;6.05;3.80;;;26.70;80.40;;;;;;4941448;29;20121;-86
2021/07/10 15:12:46;;;;;;;4.80;3.42;;;26.70;80.40;;;;;;4952625;29;20477;-86
2021/07/10 15:15:56;;;;;;;;;;;;;;;;;;;;;
2021/07/10 15:22:00;;;;;;;;;;;;;;;;;;;;;
2021/07/10 15:27:50;;;;;;;4.68;3.03;;;26.50;82.10;;;;;;4914356;29;20036;-87
2021/07/10 15:33:45;;;;;;;6.88;3.40;;;26.20;83.30;;;;;;4920664;29;20047;-88
2021/07/10 15:36:23;;;;;;;5.22;3.88;;;26.10;83.30;;;;;;4907281;29;20039;-88
2021/07/10 15:38:58;;;;;;;;;;;;;;;;;;;;;
2021/07/10 15:41:45;;;;;;;;;;;;;;;;;;;;;
2021/07/10 15:45:05;;;;;;;10.45;8.15;;;25.90;84.00;;;;;;5054581;28;20029;-88
2021/07/10 15:48:14;;;;;;;9.65;7.88;;;25.90;83.70;;;;;;5003412;28;20030;-89
2021/07/10 15:50:48;;;;;;;7.75;5.80;;;25.80;83.40;;;;;;4991028;28;20042;-88
2021/07/10 15:53:14;;;;;;;5.47;4.30;;;25.80;83.30;;;;;;4977367;28;20038;-88
2021/07/10 15:55:40;;;;;;;6.20;4.03;;;25.80;82.50;;;;;;4976175;28;20121;-88
2021/07/10 16:01:23;;;;;;;4.63;3.13;;;25.90;82.80;;;;;;5003804;28;20033;-88
2021/07/10 16:04:12;;;;;;;3.05;2.58;;;26.10;82.30;;;;;;4977942;28;20471;-88
2021/07/10 16:09:50;;;;;;;3.53;2.60;;;26.40;81.90;;;;;;5052122;28;20080;-88
2021/07/10 16:12:34;;;;;;;3.55;2.55;;;26.50;81.00;;;;;;5017423;28;20017;-88
2021/07/10 16:15:43;;;;;;;2.83;2.45;;;26.60;80.10;;;;;;5033779;28;20029;-87
2021/07/10 16:18:19;;;;;;;2.80;2.07;;;26.50;80.70;;;;;;5009650;28;20034;-87
2021/07/10 16:20:59;;;;;;;3.47;2.22;;;26.50;80.80;;;;;;5014045;28;20025;-88
2021/07/10 16:24:13;;;;;;;;;;;;;;;;;;;;;
2021/07/10 16:26:47;;;;;;;2.95;2.28;;;26.40;81.00;;;;;;5041408;28;20500;-87
2021/07/10 16:29:53;;;;;;;;;;;;;;;;;;;;;
2021/07/10 16:35:28;;;;;;;4.95;3.08;;;26.00;81.80;;;;;;5037214;28;20033;-88
2021/07/10 16:38:30;;;;;;;4.63;3.58;;;25.90;81.30;;;;;;5016403;28;20036;-88
2021/07/10 16:41:08;;;;;;;4.22;2.92;;;25.70;81.20;;;;;;5015238;28;20484;-89
2021/07/10 16:44:22;;;;;;;4.57;3.30;;;25.60;81.40;;;;;;5038182;28;20032;-88
2021/07/10 16:46:47;;;;;;;4.30;3.30;;;25.60;82.10;;;;;;5024728;28;20405;-88
2021/07/10 16:49:32;;;;;;;4.45;3.20;;;25.60;82.60;;;;;;5033693;28;20111;-88
2021/07/10 16:52:06;;;;;;;4.60;3.30;;;25.60;82.90;;;;;;5045643;28;20037;-88
2021/07/10 16:54:52;;;;;;;3.30;2.53;;;25.60;82.00;;;;;;5028887;28;20021;-87
2021/07/10 16:57:58;;;;;;;3.30;2.40;;;25.50;81.60;;;;;;5011694;28;20041;-88
2021/07/10 17:00:57;;;;;;;;;;;;;;;;;;;;;
2021/07/10 17:03:53;;;;;;;3.25;2.67;;;25.50;82.60;;;;;;5040027;28;20380;-87
2021/07/10 17:07:17;;;;;;;3.47;2.70;;;25.50;83.00;;;;;;4969981;28;20027;-88
2021/07/10 17:10:20;;;;;;;;;;;;;;;;;;;;;
2021/07/10 17:13:33;;;;;;;4.53;2.65;;;25.30;81.20;;;;;;4915473;29;20050;-88
2021/07/10 17:23:00;;;;;;;4.10;2.78;;;25.10;82.00;;;;;;4849097;29;20033;-88
2021/07/10 17:28:28;;;;;;;3.92;2.92;;;25.10;82.80;;;;;;4841165;29;20033;-88
2021/07/10 17:31:49;;;;;;;3.92;2.67;;;25.10;83.60;;;;;;4890599;29;20083;-87
2021/07/10 17:41:00;;;;;;;3.80;2.83;;;25.10;84.40;;;;;;4878098;29;20067;-87
2021/07/10 17:43:35;;;;;;;2.88;2.58;;;25.20;84.10;;;;;;4892670;29;20037;-87
2021/07/10 17:52:33;;;;;;;2.83;2.35;;;25.10;85.20;;;;;;4915546;29;20071;-87
2021/07/10 17:55:25;;;;;;;3.78;2.75;;;25.00;85.80;;;;;;5015956;28;20049;-87
2021/07/10 18:05:59;;;;;;;3.65;2.60;;;24.60;85.10;;;;;;4827613;29;20071;-87
2021/07/10 18:09:03;;;;;;;4.28;2.92;;;24.50;85.90;;;;;;4904584;29;20432;-88
2021/07/10 18:12:14;;;;;;;4.15;3.05;;;24.30;86.50;;;;;;4940246;29;20071;-87
2021/07/10 18:14:58;;;;;;;;;;;;;;;;;;;;;
2021/07/10 18:17:42;;;;;;;5.63;3.20;;;24.10;87.20;;;;;;5038230;28;20474;-87
2021/07/10 18:20:12;;;;;;;4.65;3.50;;;24.00;87.70;;;;;;5021804;28;20478;-87
2021/07/10 18:22:38;;;;;;;5.43;3.90;;;24.00;88.10;;;;;;5015453;28;20072;-87
2021/07/10 18:25:13;;;;;;;6.38;4.50;;;23.90;89.50;;;;;;5041983;28;20516;-87
2021/07/10 18:27:46;;;;;;;4.07;3.40;;;23.80;90.10;;;;;;5028809;28;20025;-88
2021/07/10 18:30:20;;;;;;;4.57;3.70;;;23.70;90.50;;;;;;5017140;28;20036;-88
2021/07/10 18:33:01;;;;;;;5.03;3.72;;;23.60;90.80;;;;;;5040283;28;20425;-89
2021/07/10 18:36:45;;;;;;;;;;;;;;;;;;;;;
2021/07/10 18:39:41;;;;;;;;;;;;;;;;;;;;;
2021/07/10 18:48:47;;;;;;;5.15;3.97;;;23.20;92.70;;;;;;5040049;28;20392;-89
2021/07/10 18:51:25;;;;;;;7.10;5.13;;;23.10;93.10;;;;;;5015134;28;20390;-89
2021/07/10 18:54:05;;;;;;;6.43;4.95;;;22.90;93.30;;;;;;5014867;28;20033;-89
2021/07/10 18:56:49;;;;;;;6.15;4.50;;;22.90;93.60;;;;;;5015907;28;20026;-87
2021/07/10 18:59:20;;;;;;;5.78;4.57;;;22.80;93.90;;;;;;5017156;28;20048;-88
2021/07/10 19:01:59;;;;;;;;;;;;;;;;;;;;;
2021/07/10 19:04:27;;;;;;;5.63;4.63;;;22.80;94.30;;;;;;5017027;28;20473;-88
2021/07/10 19:06:56;;;;;;;6.63;4.30;;;22.80;94.50;;;;;;4999399;28;20116;-88
2021/07/10 19:09:26;;;;;;;5.38;4.57;;;22.80;94.60;;;;;;4998891;28;20072;-87